createdAt,value
2018-03-02T00:01:08.556Z,103.00
2018-03-02T00:03:37.136Z,85.20
2018-03-02T00:06:05.821Z,80.57
2018-03-02T00:08:34.502Z,79.97
2018-03-02T00:11:03.193Z,84.03
2018-03-02T00:13:31.829Z,85.07
2018-03-02T00:16:01.551Z,81.63
2018-03-02T00:18:30.273Z,73.43
2018-03-02T00:20:58.958Z,59.07
2018-03-02T00:23:27.649Z,68.53
2018-03-02T00:25:56.214Z,64.07
2018-03-02T00:28:24.917Z,67.77
2018-03-02T00:30:53.591Z,71.80
2018-03-02T00:33:22.145Z,67.63
2018-03-02T00:35:50.864Z,58.30
2018-03-02T00:38:19.660Z,61.33
2018-03-02T00:40:48.236Z,64.20
2018-03-02T00:43:16.922Z,67.77
2018-03-02T00:45:45.805Z,68.90
2018-03-02T00:48:14.504Z,59.60
2018-03-02T00:50:43.148Z,59.23
2018-03-02T00:53:11.875Z,58.00
2018-03-02T00:55:40.662Z,61.97
2018-03-02T00:58:10.128Z,57.30
2018-03-02T01:00:38.806Z,58.27
2018-03-02T01:03:07.501Z,53.93
2018-03-02T01:05:36.186Z,53.07
2018-03-02T01:08:05.278Z,51.80
2018-03-02T01:10:33.912Z,52.97
2018-03-02T01:13:03.363Z,46.30
2018-03-02T01:15:32.356Z,50.20
2018-03-02T01:18:00.944Z,49.50
2018-03-02T01:20:29.728Z,47.23
2018-03-02T01:22:58.523Z,43.97
2018-03-02T01:25:27.209Z,47.50
2018-03-02T01:27:55.833Z,47.93
2018-03-02T01:30:25.296Z,44.20
2018-03-02T01:32:53.946Z,45.67
2018-03-02T01:35:22.666Z,58.33
2018-03-02T01:37:51.560Z,59.03
2018-03-02T01:40:20.247Z,63.37
2018-03-02T01:42:49.031Z,59.13
2018-03-02T01:45:17.924Z,61.17
2018-03-02T01:47:46.710Z,56.00
2018-03-02T01:50:15.396Z,51.50
2018-03-02T01:52:44.080Z,52.80
2018-03-02T01:55:12.830Z,50.70
2018-03-02T01:57:41.454Z,48.57
2018-03-02T02:00:10.238Z,47.23
2018-03-02T02:02:38.924Z,50.53
2018-03-02T02:05:07.575Z,49.37
2018-03-02T02:07:37.411Z,49.10
2018-03-02T02:10:06.113Z,47.20
2018-03-02T02:12:34.796Z,47.23
2018-03-02T02:15:03.584Z,48.50
2018-03-02T02:17:32.156Z,50.87
2018-03-02T02:20:00.855Z,49.13
2018-03-02T02:22:29.640Z,52.17
2018-03-02T02:24:58.352Z,46.40
2018-03-02T02:27:26.903Z,49.67
2018-03-02T02:29:55.951Z,52.30
2018-03-02T02:32:25.414Z,56.33
2018-03-02T02:34:54.036Z,59.97
2018-03-02T02:37:23.599Z,60.90
2018-03-02T02:39:52.284Z,59.63
2018-03-02T02:42:20.915Z,48.47
2018-03-02T02:44:50.480Z,48.30
2018-03-02T02:47:19.226Z,51.93
2018-03-02T02:49:47.949Z,52.60
2018-03-02T02:52:16.910Z,56.83
2018-03-02T02:54:45.457Z,53.27
2018-03-02T02:57:14.991Z,61.93
2018-03-02T02:59:43.887Z,63.60
2018-03-02T03:02:12.607Z,64.17
2018-03-02T03:04:41.276Z,60.80
2018-03-02T03:07:10.089Z,48.27
2018-03-02T03:09:38.783Z,46.27
2018-03-02T03:12:07.352Z,46.90
2018-03-02T03:14:36.140Z,48.87
2018-03-02T03:17:04.832Z,57.67
2018-03-02T03:19:33.475Z,50.10
2018-03-02T03:22:02.401Z,44.83
2018-03-02T03:24:30.988Z,46.77
2018-03-02T03:26:59.674Z,52.33
2018-03-02T03:29:28.568Z,52.67
2018-03-02T03:31:57.137Z,54.67
2018-03-02T03:34:25.831Z,51.20
2018-03-02T03:36:54.936Z,54.77
2018-03-02T03:39:23.618Z,57.53
2018-03-02T03:41:52.258Z,72.33
2018-03-02T03:44:21.189Z,65.17
2018-03-02T03:46:49.822Z,66.57
2018-03-02T03:49:19.283Z,65.40
2018-03-02T03:51:47.970Z,60.13
2018-03-02T03:54:16.650Z,52.13
2018-03-02T03:56:46.136Z,50.57
2018-03-02T03:59:14.960Z,56.83
2018-03-02T04:01:44.426Z,68.57
2018-03-02T04:04:13.067Z,63.47
2018-03-02T04:06:42.000Z,57.23
2018-03-02T04:09:10.630Z,59.73
2018-03-02T04:11:40.090Z,57.83
2018-03-02T04:14:09.140Z,60.47
2018-03-02T04:16:37.870Z,119.40
2018-03-02T04:19:06.421Z,89.40
2018-03-02T04:21:35.340Z,86.23
2018-03-02T04:24:03.986Z,69.00
2018-03-02T04:26:32.628Z,72.20
2018-03-02T04:29:01.396Z,61.90
2018-03-02T04:31:30.084Z,61.57
2018-03-02T04:33:58.877Z,83.07
2018-03-02T04:36:27.663Z,72.53
2018-03-02T04:38:56.318Z,93.10
2018-03-02T04:41:25.035Z,75.27
2018-03-02T04:43:53.721Z,82.90
2018-03-02T04:46:22.287Z,74.93
2018-03-02T04:48:50.995Z,72.43
2018-03-02T04:51:19.668Z,72.73
2018-03-02T04:53:48.365Z,73.13
2018-03-02T04:56:16.987Z,69.07
2018-03-02T04:58:46.550Z,70.37
2018-03-02T05:01:15.200Z,98.43
2018-03-02T05:03:43.921Z,111.33
2018-03-02T05:06:13.059Z,107.60
2018-03-02T05:08:42.522Z,112.53
2018-03-02T05:11:11.170Z,91.10
2018-03-02T05:13:39.896Z,84.07
2018-03-02T05:16:08.474Z,88.53
2018-03-02T05:18:37.167Z,86.57
2018-03-02T05:21:06.142Z,73.97
2018-03-02T05:23:34.727Z,128.67
2018-03-02T05:26:03.321Z,306.53
2018-03-02T05:28:32.130Z,263.97
2018-03-02T05:31:00.804Z,221.03
2018-03-02T05:33:29.450Z,132.40
2018-03-02T05:35:58.221Z,197.50
2018-03-02T05:38:27.674Z,178.13
2018-03-02T05:40:57.102Z,133.00
2018-03-02T05:43:26.549Z,129.70
2018-03-02T05:45:55.138Z,145.37
2018-03-02T05:48:24.529Z,137.03
2018-03-02T05:50:53.476Z,111.63
2018-03-02T05:53:22.931Z,77.30
2018-03-02T05:55:51.562Z,74.10
2018-03-02T05:58:21.122Z,64.13
2018-03-02T06:00:49.781Z,73.40
2018-03-02T06:03:18.487Z,67.60
2018-03-02T06:05:47.231Z,65.03
2018-03-02T06:08:15.964Z,88.87
2018-03-02T06:10:44.652Z,207.97
2018-03-02T06:13:13.311Z,150.13
2018-03-02T06:15:42.022Z,92.37
2018-03-02T06:18:10.670Z,106.03
2018-03-02T06:20:39.700Z,123.23
2018-03-02T06:23:08.358Z,102.83
2018-03-02T06:25:37.072Z,118.93
2018-03-02T06:28:05.877Z,102.93
2018-03-02T06:30:34.425Z,90.70
2018-03-02T06:33:02.977Z,76.90
2018-03-02T06:35:32.481Z,88.77
2018-03-02T06:38:01.797Z,76.90
2018-03-02T06:40:30.343Z,69.87
2018-03-02T06:42:59.046Z,66.53
2018-03-02T06:45:28.511Z,64.77
2018-03-02T06:47:57.155Z,81.70
2018-03-02T06:50:25.980Z,75.47
2018-03-02T06:52:54.668Z,73.90
2018-03-02T06:55:23.339Z,70.23
2018-03-02T06:57:52.105Z,69.27
2018-03-02T07:00:20.824Z,72.30
2018-03-02T07:02:49.510Z,72.33
2018-03-02T07:05:18.201Z,71.53
2018-03-02T07:07:46.883Z,74.87
2018-03-02T07:10:15.469Z,76.27
2018-03-02T07:12:44.255Z,69.77
2018-03-02T07:15:12.948Z,75.70
2018-03-02T07:17:41.626Z,72.93
2018-03-02T07:20:10.358Z,74.03
2018-03-02T07:22:39.821Z,66.73
2018-03-02T07:25:08.447Z,69.00
2018-03-02T07:27:38.016Z,69.20
2018-03-02T07:30:06.700Z,79.17
2018-03-02T07:32:35.321Z,79.83
2018-03-02T07:35:05.805Z,78.17
2018-03-02T07:37:34.468Z,80.60
2018-03-02T07:40:03.178Z,79.57
2018-03-02T07:42:31.865Z,74.97
2018-03-02T07:45:00.549Z,69.93
2018-03-02T07:47:29.180Z,66.33
2018-03-02T07:49:58.842Z,61.83
2018-03-02T07:52:27.491Z,58.23
2018-03-02T07:54:56.214Z,49.07
2018-03-02T07:57:25.010Z,30.63
2018-03-02T07:59:53.696Z,33.83
2018-03-02T08:02:22.334Z,42.87
2018-03-02T08:04:51.951Z,44.97
2018-03-02T08:07:21.506Z,55.20
2018-03-02T08:09:50.282Z,35.83
2018-03-02T08:12:19.070Z,35.80
2018-03-02T08:14:47.756Z,91.90
2018-03-02T08:17:16.439Z,51.90
2018-03-02T08:19:45.223Z,145.00
2018-03-02T08:22:13.878Z,97.30
2018-03-02T08:24:42.595Z,53.30
2018-03-02T08:27:11.682Z,53.10
2018-03-02T08:29:40.383Z,47.63
2018-03-02T08:32:08.930Z,47.10
2018-03-02T08:34:37.916Z,84.13
2018-03-02T08:37:06.617Z,79.90
2018-03-02T08:39:35.324Z,64.97
2018-03-02T08:42:04.469Z,69.37
2018-03-02T08:44:33.925Z,43.97
2018-03-02T08:47:02.721Z,44.17
2018-03-02T08:49:31.396Z,48.23
2018-03-02T08:52:00.092Z,44.90
2018-03-02T08:54:28.878Z,96.60
2018-03-02T08:56:57.662Z,50.80
2018-03-02T08:59:26.253Z,40.17
2018-03-02T09:01:54.836Z,37.30
2018-03-02T09:04:23.903Z,39.67
2018-03-02T09:06:52.614Z,39.87
2018-03-02T09:09:21.239Z,43.47
2018-03-02T09:11:50.861Z,40.50
2018-03-02T09:14:19.594Z,43.03
2018-03-02T09:16:48.168Z,46.07
2018-03-02T09:19:16.909Z,45.17
2018-03-02T09:21:46.363Z,48.53
2018-03-02T09:24:14.938Z,47.13
2018-03-02T09:26:43.944Z,44.10
2018-03-02T09:29:12.530Z,69.60
2018-03-02T09:31:41.222Z,48.00
2018-03-02T09:34:10.002Z,42.73
2018-03-02T09:36:38.687Z,39.97
2018-03-02T09:39:07.327Z,40.03
2018-03-02T09:41:36.060Z,42.30
2018-03-02T09:44:04.744Z,43.23
2018-03-02T09:46:33.431Z,41.47
2018-03-02T09:49:02.215Z,42.43
2018-03-02T09:51:30.865Z,41.97
2018-03-02T09:53:59.598Z,37.20
2018-03-02T09:56:28.724Z,38.03
2018-03-02T09:58:58.191Z,37.10
2018-03-02T10:01:26.838Z,36.47
2018-03-02T10:03:55.599Z,45.87
2018-03-02T10:06:25.068Z,130.43
2018-03-02T10:08:53.632Z,43.20
2018-03-02T10:11:22.439Z,40.40
2018-03-02T10:13:51.224Z,34.67
2018-03-02T10:16:19.910Z,31.80
2018-03-02T10:18:48.859Z,30.13
2018-03-02T10:21:17.588Z,28.17
2018-03-02T10:23:46.276Z,29.57
2018-03-02T10:26:15.260Z,34.27
2018-03-02T10:28:43.927Z,31.73
2018-03-02T10:31:13.431Z,29.33
2018-03-02T10:33:42.324Z,28.73
2018-03-02T10:36:11.012Z,27.37
2018-03-02T10:38:39.650Z,29.40
2018-03-02T10:41:08.383Z,24.73
2018-03-02T10:43:37.068Z,27.83
2018-03-02T10:46:05.754Z,23.87
2018-03-02T10:48:34.697Z,22.90
2018-03-02T10:51:04.148Z,22.10
2018-03-02T10:53:32.732Z,21.80
2018-03-02T10:56:01.826Z,24.77
2018-03-02T10:58:30.468Z,28.53
2018-03-02T11:00:59.201Z,28.57
2018-03-02T11:03:36.403Z,28.90
2018-03-02T11:06:05.793Z,24.97
2018-03-02T11:08:34.470Z,29.47
2018-03-02T11:11:03.256Z,34.50
2018-03-02T11:13:31.952Z,31.80
2018-03-02T11:16:01.451Z,29.07
2018-03-02T11:18:30.344Z,34.20
2018-03-02T11:20:58.920Z,28.40
2018-03-02T11:23:27.617Z,30.27
2018-03-02T11:25:56.512Z,33.27
2018-03-02T11:28:25.233Z,33.17
2018-03-02T11:30:53.876Z,28.37
2018-03-02T11:33:22.912Z,29.87
2018-03-02T11:35:51.558Z,30.33
2018-03-02T11:38:20.283Z,28.87
2018-03-02T11:40:49.178Z,31.97
2018-03-02T11:43:17.863Z,34.43
2018-03-02T11:45:46.503Z,29.57
2018-03-02T11:48:15.625Z,32.67
2018-03-02T11:50:44.336Z,30.17
2018-03-02T11:53:13.122Z,30.27
2018-03-02T11:55:41.908Z,26.57
2018-03-02T11:58:10.593Z,30.43
2018-03-02T12:00:39.260Z,34.43
2018-03-02T12:03:08.253Z,30.87
2018-03-02T12:05:36.958Z,29.83
2018-03-02T12:08:05.533Z,33.07
2018-03-02T12:10:34.455Z,31.10
2018-03-02T12:13:03.228Z,30.93
2018-03-02T12:15:31.909Z,30.27
2018-03-02T12:18:00.793Z,30.20
2018-03-02T12:20:29.426Z,30.50
2018-03-02T12:22:58.889Z,30.53
2018-03-02T12:25:27.612Z,31.20
2018-03-02T12:27:57.072Z,31.80
2018-03-02T12:30:25.724Z,30.40
2018-03-02T12:32:54.751Z,33.47
2018-03-02T12:35:23.337Z,36.90
2018-03-02T12:37:51.884Z,27.13
2018-03-02T12:40:20.770Z,26.13
2018-03-02T12:42:49.494Z,29.77
2018-03-02T12:45:18.129Z,30.97
2018-03-02T12:47:47.693Z,32.60
2018-03-02T12:50:16.389Z,32.50
2018-03-02T12:52:45.033Z,33.03
2018-03-02T12:55:13.808Z,33.50
2018-03-02T12:57:42.531Z,29.37
2018-03-02T13:00:11.326Z,33.53
2018-03-02T13:02:40.054Z,30.77
2018-03-02T13:05:09.373Z,28.17
2018-03-02T13:07:38.065Z,26.03
2018-03-02T13:10:06.832Z,29.10
2018-03-02T13:12:36.292Z,29.13
2018-03-02T13:15:04.916Z,31.03
2018-03-02T13:17:34.386Z,31.37
2018-03-02T13:20:03.131Z,27.47
2018-03-02T13:22:43.373Z,27.20
2018-03-02T13:25:12.835Z,26.87
2018-03-02T13:27:59.256Z,25.43
2018-03-02T13:30:29.449Z,25.73
2018-03-02T13:36:05.014Z,27.33
2018-03-02T13:38:34.622Z,27.60
2018-03-02T13:41:21.142Z,26.53
2018-03-02T13:43:50.088Z,28.60
2018-03-02T13:46:18.881Z,31.90
2018-03-02T13:49:06.223Z,33.47
2018-03-02T13:51:35.675Z,27.17
2018-03-02T13:54:04.311Z,28.10
2018-03-02T13:56:51.756Z,30.43
2018-03-02T13:59:20.472Z,29.97
2018-03-02T14:01:49.111Z,29.10
2018-03-02T14:04:35.400Z,33.87
2018-03-02T14:07:04.864Z,32.97
2018-03-02T14:09:33.450Z,33.17
2018-03-02T14:12:02.124Z,31.50
2018-03-02T14:14:30.921Z,33.67
2018-03-02T14:16:59.486Z,32.77
2018-03-02T14:19:28.392Z,33.60
2018-03-02T14:21:57.078Z,35.47
2018-03-02T14:24:25.764Z,35.83
2018-03-02T14:26:55.638Z,29.77
2018-03-02T14:29:24.363Z,33.47
2018-03-02T14:31:53.053Z,28.70
2018-03-02T14:34:21.734Z,35.30
2018-03-02T14:36:50.420Z,35.63
2018-03-02T14:39:19.009Z,34.13
2018-03-02T14:41:47.692Z,40.17
2018-03-02T14:44:16.380Z,31.13
2018-03-02T14:46:45.030Z,30.90
2018-03-02T14:49:14.121Z,26.70
2018-03-02T14:51:42.844Z,29.07
2018-03-02T14:54:11.580Z,26.40
2018-03-02T14:56:41.236Z,28.20
2018-03-02T14:59:09.932Z,31.67
2018-03-02T15:01:38.629Z,34.90
2018-03-02T15:04:07.597Z,114.57
2018-03-02T15:06:36.144Z,57.47
2018-03-02T15:09:04.981Z,65.63
2018-03-02T15:11:33.866Z,43.77
2018-03-02T15:14:02.453Z,29.00
2018-03-02T15:16:31.967Z,27.23
2018-03-02T15:19:01.533Z,28.90
2018-03-02T15:21:30.229Z,55.60
2018-03-02T15:23:58.789Z,72.60
2018-03-02T15:26:27.535Z,49.90
2018-03-02T15:28:56.875Z,28.60
2018-03-02T15:31:25.675Z,28.63
2018-03-02T15:33:54.442Z,28.17
2018-03-02T15:36:23.154Z,29.23
2018-03-02T15:38:51.830Z,34.83
2018-03-02T15:41:20.616Z,34.67
2018-03-02T15:43:49.317Z,42.17
2018-03-02T15:46:18.004Z,41.73
2018-03-02T15:48:46.789Z,53.60
2018-03-02T15:51:15.361Z,47.33
2018-03-02T15:53:44.062Z,41.87
2018-03-02T15:56:12.743Z,46.67
2018-03-02T15:58:41.424Z,43.57
2018-03-02T16:01:10.084Z,41.13
2018-03-02T16:03:39.001Z,42.43
2018-03-02T16:06:07.649Z,54.33
2018-03-02T16:08:36.374Z,66.67
2018-03-02T16:11:05.538Z,62.07
2018-03-02T16:13:34.147Z,52.50
2018-03-02T16:16:02.848Z,54.50
2018-03-02T16:18:31.690Z,45.00
2018-03-02T16:21:00.427Z,47.93
2018-03-02T16:23:29.214Z,77.43
2018-03-02T16:25:58.264Z,142.10
2018-03-02T16:28:26.993Z,78.50
2018-03-02T16:30:55.677Z,78.77
2018-03-02T16:33:24.416Z,62.63
2018-03-02T16:35:53.111Z,43.50
2018-03-02T16:38:21.832Z,50.83
2018-03-02T16:40:50.522Z,53.07
2018-03-02T16:43:19.314Z,50.63
2018-03-02T16:45:48.004Z,64.17
2018-03-02T16:48:16.850Z,68.20
2018-03-02T16:50:45.570Z,79.43
2018-03-02T16:53:14.236Z,75.87
2018-03-02T16:55:43.003Z,67.37
2018-03-02T16:58:12.340Z,61.13
2018-03-02T17:00:41.037Z,61.10
2018-03-02T17:03:09.704Z,48.23
2018-03-02T17:05:38.448Z,51.47
2018-03-02T17:08:07.907Z,79.90
2018-03-02T17:10:37.557Z,57.07
2018-03-02T17:13:07.023Z,62.77
2018-03-02T17:15:35.671Z,53.67
2018-03-02T17:18:04.493Z,69.87
2018-03-02T17:20:33.042Z,84.03
2018-03-02T17:23:01.724Z,64.83
2018-03-02T17:25:30.719Z,56.43
2018-03-02T17:27:59.349Z,51.53
2018-03-02T17:30:28.003Z,52.97
2018-03-02T17:32:56.818Z,56.23
2018-03-02T17:35:25.516Z,63.87
2018-03-02T17:37:54.190Z,53.20
2018-03-02T17:40:23.149Z,58.90
2018-03-02T17:42:51.868Z,53.73
2018-03-02T17:45:20.533Z,67.97
2018-03-02T17:47:49.754Z,69.87
2018-03-02T17:50:18.494Z,69.77
2018-03-02T17:52:47.226Z,64.77
2018-03-02T17:55:16.219Z,72.47
2018-03-02T17:57:44.805Z,59.60
2018-03-02T18:00:13.486Z,55.73
2018-03-02T18:02:42.312Z,78.00
2018-03-02T18:05:11.787Z,76.27
2018-03-02T18:07:41.065Z,54.70
2018-03-02T18:10:09.871Z,63.10
2018-03-02T18:12:38.556Z,52.87
2018-03-02T18:15:07.221Z,57.03
2018-03-02T18:17:35.989Z,84.97
2018-03-02T18:20:04.710Z,69.37
2018-03-02T18:22:33.397Z,62.73
2018-03-02T18:25:02.086Z,55.23
2018-03-02T18:27:30.770Z,128.33
2018-03-02T18:29:59.406Z,81.80
2018-03-02T18:32:29.063Z,61.60
2018-03-02T18:34:57.750Z,72.93
2018-03-02T18:37:26.325Z,84.80
2018-03-02T18:39:55.329Z,65.07
2018-03-02T18:42:24.015Z,58.70
2018-03-02T18:44:52.659Z,47.97
2018-03-02T18:47:21.485Z,49.27
2018-03-02T18:49:50.171Z,55.80
2018-03-02T18:52:18.812Z,75.43
2018-03-02T18:54:47.446Z,83.77
2018-03-02T18:57:16.098Z,95.23
2018-03-02T18:59:45.066Z,134.47
2018-03-02T19:02:14.632Z,82.20
2018-03-02T19:04:43.431Z,93.67
2018-03-02T19:07:12.200Z,98.17
2018-03-02T19:09:41.160Z,125.73
2018-03-02T19:12:09.880Z,87.53
2018-03-02T19:14:38.547Z,63.60
2018-03-02T19:17:07.558Z,58.87
2018-03-02T19:19:36.207Z,64.77
2018-03-02T19:22:04.830Z,63.80
2018-03-02T19:24:33.438Z,134.13
2018-03-02T19:27:02.203Z,75.00
2018-03-02T19:29:30.853Z,57.43
2018-03-02T19:31:59.620Z,69.20
2018-03-02T19:34:29.084Z,73.53
2018-03-02T19:36:58.583Z,53.30
2018-03-02T19:39:27.387Z,108.63
2018-03-02T19:41:56.067Z,69.17
2018-03-02T19:44:24.847Z,56.13
2018-03-02T19:46:53.939Z,55.30
2018-03-02T19:49:22.991Z,63.97
2018-03-02T19:51:52.537Z,71.67
2018-03-02T19:54:21.328Z,70.87
2018-03-02T19:56:50.019Z,70.63
2018-03-02T19:59:18.636Z,63.27
2018-03-02T20:01:48.159Z,47.90
2018-03-02T20:04:16.889Z,70.57
2018-03-02T20:06:45.519Z,56.10
2018-03-02T20:09:15.036Z,53.13
2018-03-02T20:11:43.769Z,56.13
2018-03-02T20:14:12.522Z,123.43
2018-03-02T20:16:41.240Z,62.67
2018-03-02T20:19:09.829Z,43.90
2018-03-02T20:21:38.476Z,75.63
2018-03-02T20:24:07.243Z,52.53
2018-03-02T20:26:36.705Z,42.57
2018-03-02T20:29:05.491Z,56.77
2018-03-02T20:31:34.221Z,45.27
2018-03-02T20:34:03.685Z,44.43
2018-03-02T20:36:32.304Z,43.60
2018-03-02T20:39:01.869Z,44.17
2018-03-02T20:41:30.554Z,45.60
2018-03-02T20:43:59.185Z,49.07
2018-03-02T20:46:28.749Z,44.37
2018-03-02T20:48:57.433Z,54.53
2018-03-02T20:51:26.008Z,43.27
2018-03-02T20:53:54.905Z,47.80
2018-03-02T20:56:23.593Z,75.70
2018-03-02T20:58:52.275Z,53.03
2018-03-02T21:01:21.138Z,47.97
2018-03-02T21:03:49.862Z,47.23
2018-03-02T21:06:18.540Z,52.47
2018-03-02T21:08:47.226Z,50.63
2018-03-02T21:11:16.734Z,58.07
2018-03-02T21:13:45.297Z,65.93
2018-03-02T21:16:14.015Z,78.80
2018-03-02T21:18:44.218Z,100.67
2018-03-02T21:21:12.797Z,98.90
2018-03-02T21:23:41.591Z,115.10
2018-03-02T21:26:10.276Z,93.70
2018-03-02T21:28:39.025Z,105.53
2018-03-02T21:31:08.122Z,104.70
2018-03-02T21:33:36.849Z,121.70
2018-03-02T21:36:05.534Z,115.70
2018-03-02T21:38:34.221Z,117.20
2018-03-02T21:41:02.808Z,131.13
2018-03-02T21:43:31.456Z,102.43
2018-03-02T21:46:00.177Z,91.20
2018-03-02T21:48:28.818Z,83.57
2018-03-02T21:50:57.549Z,85.50
2018-03-02T21:53:26.334Z,71.53
2018-03-02T21:55:55.020Z,73.53
2018-03-02T21:58:23.652Z,77.97
2018-03-02T22:00:53.360Z,72.67
2018-03-02T22:03:22.777Z,81.53
2018-03-02T22:05:51.506Z,81.30
2018-03-02T22:08:20.604Z,76.00
2018-03-02T22:10:49.150Z,72.50
2018-03-02T22:13:17.871Z,82.70
2018-03-02T22:15:46.656Z,73.13
2018-03-02T22:18:15.308Z,76.03
2018-03-02T22:20:44.027Z,87.10
2018-03-02T22:23:12.769Z,85.07
2018-03-02T22:25:41.462Z,80.00
2018-03-02T22:28:10.183Z,68.73
2018-03-02T22:30:38.872Z,78.23
2018-03-02T22:33:08.344Z,79.20
2018-03-02T22:35:36.978Z,80.63
2018-03-02T22:38:06.339Z,92.27
2018-03-02T22:40:35.011Z,81.90
2018-03-02T22:43:03.700Z,83.53
2018-03-02T22:45:32.428Z,77.87
2018-03-02T22:48:01.884Z,80.33
2018-03-02T22:50:30.537Z,84.70
2018-03-02T22:52:59.262Z,89.40
2018-03-02T22:55:27.899Z,96.70
2018-03-02T22:57:56.627Z,103.53
2018-03-02T23:00:25.344Z,93.50
2018-03-02T23:02:54.047Z,88.73
2018-03-02T23:05:23.409Z,98.07
2018-03-02T23:07:52.291Z,86.97
2018-03-02T23:10:20.933Z,78.00
2018-03-02T23:12:49.667Z,74.70
2018-03-02T23:15:18.662Z,79.53
2018-03-02T23:17:47.451Z,75.93
2018-03-02T23:20:16.136Z,75.50
2018-03-02T23:22:45.020Z,132.57
2018-03-02T23:25:13.705Z,81.30
2018-03-02T23:27:42.354Z,82.90
2018-03-02T23:30:11.077Z,104.43
2018-03-02T23:32:39.714Z,76.40
2018-03-02T23:35:09.029Z,72.10
2018-03-02T23:37:37.899Z,73.73
2018-03-02T23:40:07.413Z,79.00
2018-03-02T23:42:36.865Z,87.77
2018-03-02T23:45:05.650Z,98.37
2018-03-02T23:47:34.334Z,100.73
2018-03-02T23:50:02.986Z,92.87
2018-03-02T23:52:31.751Z,96.90
2018-03-02T23:55:01.277Z,95.93
2018-03-02T23:57:29.998Z,98.17
2018-03-02T23:59:59.202Z,90.80
